Time;durP1;ratioP1;P1;durP2;ratioP2;P2;SDS_P1;SDS_P2;PMS_P1;PMS_P2;Temp;Humidity;BMP_temperature;BMP_pressure;BME280_temperature;BME280_humidity;BME280_pressure;Samples;Min_cycle;Max_cycle;Signal;HPM_P1;HPM_P2
2022/05/06 00:05:30;;;;;;;2.58;2.08;;;;;;;;;;20832777;28;20138;-79
2022/05/06 00:15:31;;;;;;;2.35;1.90;;;;;;;;;;20831825;28;20625;-80
2022/05/06 00:25:33;;;;;;;3.30;2.10;;;;;;;;;;20813494;28;20104;-80
2022/05/06 00:35:37;;;;;;;2.00;1.80;;;;;;;;;;20830190;28;20049;-80
2022/05/06 00:45:43;;;;;;;2.85;2.30;;;;;;;;;;20829759;28;20041;-79
2022/05/06 00:55:47;;;;;;;2.08;1.88;;;;;;;;;;20810478;28;20127;-79
2022/05/06 01:05:52;;;;;;;2.70;2.05;;;;;;;;;;20810214;28;20046;-79
2022/05/06 01:15:54;;;;;;;2.50;2.00;;;;;;;;;;20793393;28;20050;-79
2022/05/06 01:25:59;;;;;;;2.25;2.00;;;;;;;;;;20809208;28;20538;-79
2022/05/06 01:36:03;;;;;;;3.67;2.30;;;;;;;;;;20808221;28;20140;-79
2022/05/06 01:46:06;;;;;;;2.35;2.10;;;;;;;;;;20807482;28;20107;-79
2022/05/06 01:56:09;;;;;;;2.92;2.03;;;;;;;;;;20790529;28;20072;-80
2022/05/06 02:06:16;;;;;;;2.30;2.10;;;;;;;;;;20805707;28;20055;-79
2022/05/06 02:16:22;;;;;;;3.05;2.30;;;;;;;;;;20822382;28;20596;-79
2022/05/06 02:26:42;;;;;;;2.40;2.20;;;;;;;;;;20808392;28;20133;-79
2022/05/06 02:36:45;;;;;;;2.58;2.03;;;;;;;;;;20822728;28;20049;-79
2022/05/06 02:46:53;;;;;;;2.03;1.83;;;;;;;;;;20805902;28;20064;-79
2022/05/06 02:56:57;;;;;;;2.50;2.03;;;;;;;;;;20804564;28;20485;-79
2022/05/06 03:07:04;;;;;;;2.08;1.73;;;;;;;;;;20804115;28;20055;-79
2022/05/06 03:17:15;;;;;;;2.85;2.25;;;;;;;;;;20813806;28;20060;-79
2022/05/06 03:37:38;;;;;;;1.70;1.60;;;;;;;;;;20835038;28;20076;-79
2022/05/06 03:47:41;;;;;;;2.78;2.08;;;;;;;;;;20816695;28;20045;-79
2022/05/06 03:57:44;;;;;;;2.30;1.92;;;;;;;;;;20799733;28;20099;-79
2022/05/06 04:07:46;;;;;;;2.13;1.92;;;;;;;;;;20815372;28;20096;-79
2022/05/06 04:17:48;;;;;;;2.38;2.05;;;;;;;;;;20814326;28;20057;-79
2022/05/06 04:27:54;;;;;;;2.30;2.00;;;;;;;;;;20829420;28;20053;-79
2022/05/06 04:37:57;;;;;;;2.45;2.10;;;;;;;;;;20828982;28;20811;-79
2022/05/06 04:47:59;;;;;;;2.08;1.88;;;;;;;;;;20812102;28;20051;-79
2022/05/06 04:58:03;;;;;;;2.63;1.90;;;;;;;;;;20795466;28;20438;-79
2022/05/06 05:08:09;;;;;;;2.22;2.03;;;;;;;;;;20794384;28;20056;-79
2022/05/06 05:18:18;;;;;;;1.95;1.80;;;;;;;;;;20794485;28;20137;-79
2022/05/06 05:28:20;;;;;;;1.92;1.80;;;;;;;;;;20792848;28;20083;-80
2022/05/06 05:38:22;;;;;;;2.47;1.67;;;;;;;;;;20808360;28;20057;-79
2022/05/06 05:48:26;;;;;;;1.88;1.65;;;;;;;;;;20791687;28;20038;-79
2022/05/06 05:58:34;;;;;;;1.63;1.52;;;;;;;;;;20792616;28;20495;-80
2022/05/06 06:08:38;;;;;;;1.95;1.80;;;;;;;;;;20806403;28;20049;-79
2022/05/06 06:18:42;;;;;;;1.77;1.67;;;;;;;;;;20805289;28;20077;-79
2022/05/06 06:28:44;;;;;;;2.15;1.77;;;;;;;;;;20822313;28;20057;-80
2022/05/06 06:38:47;;;;;;;2.30;1.70;;;;;;;;;;20789290;28;20056;-80
2022/05/06 06:48:49;;;;;;;2.13;1.92;;;;;;;;;;20793763;28;20060;-79
2022/05/06 06:59:03;;;;;;;2.38;2.10;;;;;;;;;;20836938;28;20056;-80
2022/05/06 07:19:25;;;;;;;2.30;1.80;;;;;;;;;;20836844;28;20053;-80
2022/05/06 07:29:27;;;;;;;2.00;1.80;;;;;;;;;;20835688;28;20053;-80
2022/05/06 07:39:29;;;;;;;1.95;1.67;;;;;;;;;;20835287;28;20053;-80
2022/05/06 07:49:31;;;;;;;2.78;2.20;;;;;;;;;;20834413;28;20073;-80
2022/05/06 07:59:33;;;;;;;2.38;2.17;;;;;;;;;;20832366;28;20462;-80
2022/05/06 08:09:35;;;;;;;2.30;2.10;;;;;;;;;;20834201;28;20045;-80
2022/05/06 08:19:37;;;;;;;2.42;2.10;;;;;;;;;;20831965;28;20065;-80
2022/05/06 08:29:41;;;;;;;2.53;2.00;;;;;;;;;;20830801;28;20057;-80
2022/05/06 08:39:42;;;;;;;2.78;2.40;;;;;;;;;;20830472;28;20061;-80
2022/05/06 09:00:05;;;;;;;2.75;2.40;;;;;;;;;;20829419;28;20057;-80
2022/05/06 09:10:10;;;;;;;2.28;2.08;;;;;;;;;;20827512;28;20095;-81
2022/05/06 09:20:21;;;;;;;3.30;2.50;;;;;;;;;;20809656;28;20045;-80
2022/05/06 09:30:23;;;;;;;2.50;2.30;;;;;;;;;;20826125;28;20057;-80
2022/05/06 09:40:28;;;;;;;2.55;2.35;;;;;;;;;;20825679;28;20049;-80
2022/05/06 09:50:34;;;;;;;2.40;2.10;;;;;;;;;;20825353;28;20042;-80
2022/05/06 10:00:38;;;;;;;2.33;2.00;;;;;;;;;;20824777;28;20681;-80
2022/05/06 10:10:41;;;;;;;2.08;1.88;;;;;;;;;;20823985;28;20112;-80
2022/05/06 10:20:45;;;;;;;1.98;1.88;;;;;;;;;;20804836;28;20057;-80
2022/05/06 10:41:21;;;;;;;2.17;1.65;;;;;;;;;;20822547;28;20767;-80
2022/05/06 10:51:24;;;;;;;1.90;1.80;;;;;;;;;;20822307;28;20105;-80
2022/05/06 11:01:26;;;;;;;1.55;1.45;;;;;;;;;;20821818;28;20045;-80
2022/05/06 11:11:33;;;;;;;1.73;1.63;;;;;;;;;;20821631;28;20069;-81
2022/05/06 11:21:34;;;;;;;1.60;1.50;;;;;;;;;;20821208;28;20057;-80
2022/05/06 11:31:36;;;;;;;1.75;1.50;;;;;;;;;;20803176;28;20450;-80
2022/05/06 11:41:38;;;;;;;1.70;1.60;;;;;;;;;;20817277;28;20057;-80
2022/05/06 11:51:42;;;;;;;1.50;1.40;;;;;;;;;;20832429;28;20045;-80
2022/05/06 12:01:44;;;;;;;1.50;1.40;;;;;;;;;;20812055;28;20048;-81
2022/05/06 12:11:46;;;;;;;1.50;1.40;;;;;;;;;;20808799;28;20053;-82
2022/05/06 12:21:47;;;;;;;1.63;1.52;;;;;;;;;;20806842;28;20065;-81
2022/05/06 12:31:59;;;;;;;1.70;1.60;;;;;;;;;;20808631;28;20428;-86
2022/05/06 12:42:10;;;;;;;1.35;1.20;;;;;;;;;;20760185;28;20041;-84
2022/05/06 12:52:11;;;;;;;1.02;1.00;;;;;;;;;;20795256;28;20037;-77
2022/05/06 13:02:13;;;;;;;1.38;1.20;;;;;;;;;;20803344;28;20057;-78
2022/05/06 13:12:15;;;;;;;1.30;1.20;;;;;;;;;;20805563;28;20049;-79
2022/05/06 13:22:17;;;;;;;1.42;1.20;;;;;;;;;;20798907;28;20127;-79
2022/05/06 13:32:18;;;;;;;1.10;1.00;;;;;;;;;;20790962;28;20042;-80
2022/05/06 13:42:20;;;;;;;1.13;1.02;;;;;;;;;;20801961;28;20041;-80
2022/05/06 13:52:22;;;;;;;1.00;1.00;;;;;;;;;;20820872;28;20053;-80
2022/05/06 14:02:24;;;;;;;1.00;1.00;;;;;;;;;;20817101;28;20466;-79
2022/05/06 14:12:26;;;;;;;1.35;1.25;;;;;;;;;;20824079;28;20549;-81
2022/05/06 14:22:28;;;;;;;1.15;1.05;;;;;;;;;;20812573;28;20578;-78
2022/05/06 14:32:31;;;;;;;2.38;1.17;;;;;;;;;;20808212;28;20045;-76
2022/05/06 14:42:32;;;;;;;1.20;1.10;;;;;;;;;;20813623;28;20510;-77
2022/05/06 14:52:34;;;;;;;1.35;1.10;;;;;;;;;;20822887;28;20049;-77
2022/05/06 15:02:36;;;;;;;1.48;1.10;;;;;;;;;;20822254;28;20450;-79
2022/05/06 15:12:38;;;;;;;1.08;1.00;;;;;;;;;;20830747;28;20053;-77
2022/05/06 15:22:40;;;;;;;1.35;1.10;;;;;;;;;;20826439;28;20053;-77
2022/05/06 15:32:42;;;;;;;1.10;1.05;;;;;;;;;;20834775;28;20136;-75
2022/05/06 15:42:44;;;;;;;1.73;1.20;;;;;;;;;;20834943;28;20392;-76
2022/05/06 15:52:46;;;;;;;1.20;1.10;;;;;;;;;;20834012;28;20099;-76
2022/05/06 16:02:47;;;;;;;1.20;1.10;;;;;;;;;;20833778;28;20053;-76
2022/05/06 16:12:49;;;;;;;1.15;0.95;;;;;;;;;;20832456;28;20488;-76
2022/05/06 16:22:52;;;;;;;1.67;1.00;;;;;;;;;;20830875;28;20054;-76
2022/05/06 16:32:54;;;;;;;1.15;1.00;;;;;;;;;;20813448;28;20266;-77
2022/05/06 16:42:59;;;;;;;0.95;0.88;;;;;;;;;;20830618;28;20132;-84
2022/05/06 16:53:01;;;;;;;1.92;1.10;;;;;;;;;;20812109;28;20049;-81
2022/05/06 17:03:04;;;;;;;1.20;1.10;;;;;;;;;;20810820;28;20053;-78
2022/05/06 17:13:07;;;;;;;1.45;1.27;;;;;;;;;;20810425;28;20132;-79
2022/05/06 17:23:08;;;;;;;1.75;1.40;;;;;;;;;;20827125;28;20091;-78
2022/05/06 17:33:10;;;;;;;2.17;1.20;;;;;;;;;;20826276;28;20040;-76
2022/05/06 17:43:12;;;;;;;0.98;0.98;;;;;;;;;;20825757;28;20045;-78
2022/05/06 17:53:15;;;;;;;1.20;1.10;;;;;;;;;;20824823;28;20041;-76
2022/05/06 18:03:17;;;;;;;1.40;1.30;;;;;;;;;;20824103;28;20048;-78
2022/05/06 18:13:19;;;;;;;1.40;1.20;;;;;;;;;;20823345;28;20056;-78
2022/05/06 18:23:21;;;;;;;1.40;1.30;;;;;;;;;;20823375;28;20053;-78
2022/05/06 18:33:23;;;;;;;1.30;1.10;;;;;;;;;;20823198;28;20045;-76
2022/05/06 18:43:25;;;;;;;1.73;1.30;;;;;;;;;;20825712;28;20057;-76
2022/05/06 18:53:27;;;;;;;1.45;1.30;;;;;;;;;;20838469;28;20107;-76
2022/05/06 19:03:29;;;;;;;1.27;1.17;;;;;;;;;;20837924;28;20388;-76
2022/05/06 19:13:31;;;;;;;1.40;1.30;;;;;;;;;;20836880;28;20053;-76
2022/05/06 19:33:53;;;;;;;1.33;1.23;;;;;;;;;;20835815;28;20404;-77
2022/05/06 19:43:56;;;;;;;1.10;1.00;;;;;;;;;;20838419;28;20060;-80
2022/05/06 19:53:59;;;;;;;1.45;1.35;;;;;;;;;;20830988;28;20085;-80
2022/05/06 20:04:03;;;;;;;1.30;1.20;;;;;;;;;;20756084;28;20054;-82
2022/05/06 20:14:06;;;;;;;1.98;1.10;;;;;;;;;;20819916;28;20058;-81
2022/05/06 20:24:09;;;;;;;1.47;1.30;;;;;;;;;;20817288;28;20047;-80
2022/05/06 20:34:11;;;;;;;1.98;1.33;;;;;;;;;;20797061;28;20480;-84
2022/05/06 20:44:17;;;;;;;1.85;1.20;;;;;;;;;;20811669;28;20132;-84
2022/05/06 20:54:19;;;;;;;1.40;1.30;;;;;;;;;;20817206;28;20052;-82
2022/05/06 21:04:21;;;;;;;1.10;1.00;;;;;;;;;;20813230;28;20059;-82
2022/05/06 21:14:24;;;;;;;1.40;1.20;;;;;;;;;;20782663;28;20499;-83
2022/05/06 21:24:25;;;;;;;3.30;1.90;;;;;;;;;;20813188;28;20049;-83
2022/05/06 21:34:28;;;;;;;2.00;1.27;;;;;;;;;;20794241;28;20069;-83
2022/05/06 21:44:30;;;;;;;1.50;1.30;;;;;;;;;;20785922;28;20049;-83
2022/05/06 21:54:33;;;;;;;1.90;1.60;;;;;;;;;;20826401;28;20877;-84
2022/05/06 22:04:37;;;;;;;2.17;1.65;;;;;;;;;;20822775;28;20158;-81
2022/05/06 22:14:40;;;;;;;3.00;1.50;;;;;;;;;;20809880;28;20057;-83
2022/05/06 22:24:42;;;;;;;1.70;1.60;;;;;;;;;;20802868;28;20128;-82
2022/05/06 22:34:45;;;;;;;3.25;2.00;;;;;;;;;;20806493;28;20115;-84
2022/05/06 22:55:07;;;;;;;2.30;2.10;;;;;;;;;;20795643;28;20115;-82
2022/05/06 23:05:09;;;;;;;2.10;1.90;;;;;;;;;;20796617;28;20492;-79
2022/05/06 23:15:11;;;;;;;3.35;2.28;;;;;;;;;;20787607;28;20085;-80
2022/05/06 23:25:13;;;;;;;2.22;1.92;;;;;;;;;;20817784;28;20053;-79
2022/05/06 23:35:14;;;;;;;2.83;2.28;;;;;;;;;;20811303;28;20042;-78
2022/05/06 23:45:16;;;;;;;3.42;2.40;;;;;;;;;;20823245;28;20664;-78
2022/05/06 23:55:18;;;;;;;3.50;2.65;;;;;;;;;;20813889;28;20111;-80
